Time;durP1;ratioP1;P1;durP2;ratioP2;P2;SDS_P1;SDS_P2;PMS_P1;PMS_P2;Temp;Humidity;BMP_temperature;BMP_pressure;BME280_temperature;BME280_humidity;BME280_pressure;Samples;Min_cycle;Max_cycle;Signal;HPM_P1;HPM_P2
2024/04/05 00:00:17;;;;;;;10.90;7.60;;;22.90;55.50;;;;;;5075341;28;20568;-69
2024/04/05 00:02:46;;;;;;;13.07;8.13;;;22.90;55.50;;;;;;5075161;28;20413;-70
2024/04/05 00:05:12;;;;;;;10.70;8.30;;;22.90;55.50;;;;;;5074959;28;20986;-70
2024/04/05 00:07:39;;;;;;;12.37;8.20;;;22.90;55.50;;;;;;5074663;28;20836;-69
2024/04/05 00:10:06;;;;;;;10.83;8.30;;;22.90;55.50;;;;;;5074547;28;20471;-69
2024/04/05 00:12:32;;;;;;;12.70;8.93;;;22.90;55.60;;;;;;5072838;28;20423;-70
2024/04/05 00:14:57;;;;;;;14.50;9.87;;;22.90;55.60;;;;;;5074549;28;20413;-70
2024/04/05 00:17:23;;;;;;;10.03;7.43;;;22.90;55.60;;;;;;5074809;28;20476;-69
2024/04/05 00:19:49;;;;;;;14.00;8.50;;;22.90;55.60;;;;;;5074424;28;20646;-70
2024/04/05 00:22:14;;;;;;;12.50;8.90;;;22.80;55.50;;;;;;5074393;28;20174;-70
2024/04/05 00:24:40;;;;;;;13.10;9.10;;;22.90;55.60;;;;;;5074254;28;20295;-70
2024/04/05 00:27:05;;;;;;;13.30;8.43;;;22.90;55.60;;;;;;5074225;28;20175;-70
2024/04/05 00:29:31;;;;;;;12.63;8.60;;;22.80;55.60;;;;;;5074492;28;20224;-70
2024/04/05 00:31:56;;;;;;;11.57;8.23;;;22.90;55.60;;;;;;5074492;28;20201;-69
2024/04/05 00:34:22;;;;;;;10.33;8.00;;;22.90;55.60;;;;;;5074382;28;20170;-69
2024/04/05 00:36:47;;;;;;;12.03;7.97;;;22.90;55.60;;;;;;5074222;28;20203;-71
2024/04/05 00:39:13;;;;;;;12.20;8.83;;;22.80;55.60;;;;;;5074168;28;20684;-70
2024/04/05 00:41:39;;;;;;;12.30;7.60;;;22.80;55.60;;;;;;5073836;28;20201;-70
2024/04/05 00:44:04;;;;;;;10.53;7.63;;;22.80;55.60;;;;;;5073945;28;20170;-70
2024/04/05 00:46:31;;;;;;;11.53;8.70;;;22.80;55.60;;;;;;5073085;28;20597;-71
2024/04/05 00:48:57;;;;;;;11.80;8.20;;;22.80;55.60;;;;;;5074499;28;20206;-68
2024/04/05 00:51:23;;;;;;;12.53;8.70;;;22.80;55.60;;;;;;5073796;28;20864;-69
2024/04/05 00:53:49;;;;;;;13.13;8.03;;;22.80;55.60;;;;;;5074084;28;20170;-69
2024/04/05 00:56:15;;;;;;;10.77;8.57;;;22.80;55.60;;;;;;5073894;28;20178;-70
2024/04/05 00:58:41;;;;;;;12.43;8.07;;;22.80;55.60;;;;;;5073889;28;20812;-69
2024/04/05 01:01:08;;;;;;;9.63;7.87;;;22.80;55.60;;;;;;5073833;28;20443;-70
2024/04/05 01:03:33;;;;;;;11.23;7.47;;;22.80;55.60;;;;;;5073436;28;20174;-68
2024/04/05 01:05:59;;;;;;;11.57;7.70;;;22.80;55.60;;;;;;5073788;28;20412;-69
2024/04/05 01:08:25;;;;;;;11.57;8.30;;;22.80;55.60;;;;;;5073907;28;20197;-69
2024/04/05 01:10:51;;;;;;;10.70;7.30;;;22.80;55.60;;;;;;5073628;28;20837;-69
2024/04/05 01:13:16;;;;;;;12.77;8.43;;;22.80;55.60;;;;;;5073428;28;20439;-68
2024/04/05 01:15:42;;;;;;;11.80;7.30;;;22.80;55.60;;;;;;5073599;28;20174;-69
2024/04/05 01:18:09;;;;;;;13.73;7.90;;;22.80;55.60;;;;;;5073468;28;20826;-69
2024/04/05 01:20:36;;;;;;;12.77;8.93;;;22.80;55.50;;;;;;5073509;28;20215;-69
2024/04/05 01:23:06;;;;;;;13.60;7.43;;;22.80;55.50;;;;;;5073099;28;20427;-68
2024/04/05 01:25:33;;;;;;;11.07;7.03;;;22.80;55.50;;;;;;5073067;28;20439;-69
2024/04/05 01:28:00;;;;;;;13.37;7.80;;;22.80;55.50;;;;;;5073189;28;20432;-70
2024/04/05 01:30:26;;;;;;;9.93;7.60;;;22.80;55.50;;;;;;5072914;28;20946;-67
2024/04/05 01:32:56;;;;;;;12.80;7.30;;;22.80;56.10;;;;;;5073638;28;20408;-70
2024/04/05 01:35:21;;;;;;;10.17;7.40;;;22.80;55.50;;;;;;5073548;28;20178;-71
2024/04/05 01:37:47;;;;;;;10.60;6.87;;;22.90;55.60;;;;;;5073238;28;20474;-69
2024/04/05 01:40:13;;;;;;;11.63;7.40;;;22.90;55.50;;;;;;5072995;28;20186;-69
2024/04/05 01:42:38;;;;;;;10.07;6.63;;;22.80;55.50;;;;;;5073063;28;20976;-71
2024/04/05 01:45:04;;;;;;;10.50;7.80;;;22.90;55.50;;;;;;5072808;28;20665;-70
2024/04/05 01:47:30;;;;;;;10.73;7.67;;;22.90;55.50;;;;;;5072880;28;20185;-70
2024/04/05 01:49:56;;;;;;;8.67;6.70;;;22.90;55.60;;;;;;5072865;28;20265;-69
2024/04/05 01:52:22;;;;;;;10.20;7.53;;;22.90;55.50;;;;;;5073452;28;20444;-69
2024/04/05 01:54:48;;;;;;;9.30;7.60;;;22.90;55.50;;;;;;5072594;28;20186;-69
2024/04/05 01:57:14;;;;;;;12.07;8.27;;;22.90;55.50;;;;;;5072165;28;20206;-69
2024/04/05 01:59:45;;;;;;;9.63;7.43;;;22.90;55.50;;;;;;5072900;28;20439;-69
2024/04/05 02:02:10;;;;;;;8.83;6.50;;;22.90;55.50;;;;;;5072687;28;20392;-69
2024/04/05 02:04:36;;;;;;;9.07;7.30;;;22.90;55.50;;;;;;5072401;28;20412;-69
2024/04/05 02:07:01;;;;;;;9.17;6.63;;;22.90;56.10;;;;;;5072328;28;20189;-70
2024/04/05 02:09:27;;;;;;;9.10;6.63;;;22.90;55.50;;;;;;5072252;28;20546;-69
2024/04/05 02:11:52;;;;;;;9.03;7.00;;;22.90;55.50;;;;;;5071772;28;20204;-68
2024/04/05 02:14:18;;;;;;;8.50;6.50;;;22.90;55.50;;;;;;5072244;28;20181;-69
2024/04/05 02:16:43;;;;;;;9.47;7.60;;;22.90;55.50;;;;;;5072098;28;20205;-69
2024/04/05 02:19:09;;;;;;;10.67;7.13;;;22.90;55.50;;;;;;5072180;28;20691;-70
2024/04/05 02:21:34;;;;;;;10.00;7.07;;;22.90;55.50;;;;;;5072136;28;20556;-69
2024/04/05 02:24:00;;;;;;;9.80;7.20;;;22.90;55.50;;;;;;5072306;28;20212;-70
2024/04/05 02:26:26;;;;;;;10.17;7.43;;;22.90;55.50;;;;;;5072106;28;20197;-69
2024/04/05 02:28:51;;;;;;;7.77;6.10;;;22.90;55.50;;;;;;5072222;28;20178;-68
2024/04/05 02:31:17;;;;;;;9.33;6.90;;;22.80;55.40;;;;;;5072047;28;20254;-69
2024/04/05 02:33:42;;;;;;;8.83;6.40;;;22.90;55.50;;;;;;5070334;28;20186;-69
2024/04/05 02:36:08;;;;;;;9.83;7.00;;;22.90;55.50;;;;;;5071954;28;20182;-68
2024/04/05 02:38:33;;;;;;;10.40;7.30;;;22.90;55.50;;;;;;5070424;28;20206;-69
2024/04/05 02:41:00;;;;;;;10.60;7.20;;;22.90;55.50;;;;;;5075982;28;20197;-69
2024/04/05 02:43:26;;;;;;;8.93;6.80;;;22.90;55.50;;;;;;5075901;28;20645;-68
2024/04/05 02:45:51;;;;;;;10.10;7.50;;;22.90;55.50;;;;;;5075814;28;20415;-68
2024/04/05 02:48:17;;;;;;;10.10;7.47;;;22.90;55.50;;;;;;5075969;28;20311;-68
2024/04/05 02:50:42;;;;;;;7.87;5.67;;;22.90;55.50;;;;;;5075739;28;20202;-69
2024/04/05 02:53:08;;;;;;;11.50;7.10;;;22.80;55.40;;;;;;5075951;28;20664;-68
2024/04/05 02:55:33;;;;;;;8.30;5.83;;;22.80;55.40;;;;;;5075335;28;20282;-68
2024/04/05 02:57:59;;;;;;;9.30;6.70;;;22.80;55.40;;;;;;5075297;28;20206;-67
2024/04/05 03:00:25;;;;;;;9.37;6.93;;;22.80;55.40;;;;;;5075617;28;20270;-69
2024/04/05 03:02:50;;;;;;;10.67;6.37;;;22.80;55.40;;;;;;5075680;28;20895;-69
2024/04/05 03:05:16;;;;;;;7.90;6.33;;;22.80;55.50;;;;;;5075329;28;20721;-68
2024/04/05 03:07:41;;;;;;;9.53;6.60;;;22.80;55.50;;;;;;5075343;28;20194;-68
2024/04/05 03:10:07;;;;;;;8.10;6.70;;;22.80;55.50;;;;;;5075605;28;20285;-69
2024/04/05 03:12:33;;;;;;;9.40;6.83;;;22.80;55.70;;;;;;5075370;28;20554;-69
2024/04/05 03:14:59;;;;;;;7.83;6.30;;;22.80;55.50;;;;;;5075307;28;20420;-68
2024/04/05 03:17:24;;;;;;;10.47;6.87;;;22.80;55.50;;;;;;5074681;28;20214;-68
2024/04/05 03:19:50;;;;;;;9.07;6.90;;;22.80;55.50;;;;;;5075225;28;20212;-69
2024/04/05 03:22:15;;;;;;;7.93;6.53;;;22.80;56.10;;;;;;5075452;28;20671;-68
2024/04/05 03:24:41;;;;;;;11.40;6.40;;;22.80;55.60;;;;;;5073849;28;20411;-68
2024/04/05 03:27:06;;;;;;;11.30;6.97;;;22.80;55.50;;;;;;5075077;28;20174;-68
2024/04/05 03:29:33;;;;;;;6.53;5.70;;;22.80;55.50;;;;;;5075071;28;20634;-68
2024/04/05 03:31:59;;;;;;;12.10;6.90;;;22.80;55.50;;;;;;5074821;28;20259;-69
2024/04/05 03:34:24;;;;;;;10.13;6.07;;;22.80;55.60;;;;;;5074736;28;20408;-69
2024/04/05 03:36:50;;;;;;;9.80;6.77;;;22.80;55.60;;;;;;5075082;28;20645;-68
2024/04/05 03:39:16;;;;;;;9.03;6.07;;;22.80;55.60;;;;;;5075053;28;20263;-68
2024/04/05 03:41:41;;;;;;;8.10;6.10;;;22.70;55.50;;;;;;5074989;28;20228;-69
2024/04/05 03:44:08;;;;;;;10.43;6.47;;;22.70;55.60;;;;;;5073025;28;20194;-69
2024/04/05 03:46:35;;;;;;;7.57;5.70;;;22.80;55.60;;;;;;5074231;28;20170;-68
2024/04/05 03:49:02;;;;;;;9.73;6.50;;;22.80;55.60;;;;;;5074628;28;20405;-68
2024/04/05 03:51:28;;;;;;;9.10;6.70;;;22.70;55.50;;;;;;5074543;28;20432;-69
2024/04/05 03:53:54;;;;;;;7.30;6.23;;;22.70;55.60;;;;;;5074294;28;20554;-69
2024/04/05 03:56:20;;;;;;;9.70;6.13;;;22.70;55.50;;;;;;5074532;28;20420;-67
2024/04/05 03:58:49;;;;;;;8.60;5.57;;;22.70;55.50;;;;;;5075036;28;20452;-69
2024/04/05 04:01:15;;;;;;;7.70;5.83;;;22.70;55.50;;;;;;5074201;28;20190;-68
2024/04/05 04:03:42;;;;;;;9.80;6.50;;;22.70;56.10;;;;;;5072621;28;20413;-69
2024/04/05 04:06:09;;;;;;;11.13;7.40;;;22.70;55.50;;;;;;5074735;28;20497;-68
2024/04/05 04:08:36;;;;;;;7.50;6.20;;;22.70;55.50;;;;;;5074485;28;20412;-69
2024/04/05 04:11:01;;;;;;;7.73;5.80;;;22.70;55.50;;;;;;5074414;28;20460;-69
2024/04/05 04:13:27;;;;;;;7.80;5.77;;;22.70;55.50;;;;;;5074083;28;20448;-70
2024/04/05 04:15:53;;;;;;;8.03;6.40;;;22.70;55.50;;;;;;5074209;28;20194;-69
2024/04/05 04:18:20;;;;;;;7.57;5.83;;;22.70;55.50;;;;;;5074108;28;20495;-68
2024/04/05 04:20:45;;;;;;;7.53;5.80;;;22.70;55.50;;;;;;5074425;28;20222;-68
2024/04/05 04:23:11;;;;;;;10.53;6.50;;;22.70;55.50;;;;;;5074330;28;20436;-69
2024/04/05 04:25:37;;;;;;;7.63;6.07;;;22.70;55.50;;;;;;5074267;28;20170;-68
2024/04/05 04:28:02;;;;;;;8.00;5.60;;;22.70;55.50;;;;;;5072703;28;20182;-68
2024/04/05 04:30:30;;;;;;;7.70;5.80;;;22.70;55.50;;;;;;5073924;28;20198;-69
2024/04/05 04:32:55;;;;;;;7.87;6.67;;;22.70;55.50;;;;;;5073902;28;20274;-68
2024/04/05 04:35:21;;;;;;;7.40;5.53;;;22.70;55.50;;;;;;5073685;28;20495;-69
2024/04/05 04:37:46;;;;;;;7.90;5.73;;;22.70;55.50;;;;;;5073809;28;20206;-68
2024/04/05 04:40:12;;;;;;;6.20;5.20;;;22.70;55.50;;;;;;5073693;28;20312;-70
2024/04/05 04:42:38;;;;;;;8.30;5.77;;;22.70;55.50;;;;;;5073984;28;20190;-68
2024/04/05 04:45:05;;;;;;;9.90;5.93;;;22.70;55.50;;;;;;5073755;28;20174;-69
2024/04/05 04:47:31;;;;;;;9.90;6.10;;;22.70;55.50;;;;;;5071999;28;20477;-69
2024/04/05 04:49:58;;;;;;;8.53;5.67;;;22.70;55.50;;;;;;5073395;28;20408;-69
2024/04/05 04:52:24;;;;;;;6.40;5.10;;;22.70;55.60;;;;;;5073580;28;20455;-68
2024/04/05 04:54:51;;;;;;;7.40;5.83;;;22.70;55.60;;;;;;5073523;28;20438;-69
2024/04/05 04:57:16;;;;;;;6.80;5.70;;;22.70;55.60;;;;;;5073419;28;20413;-68
2024/04/05 04:59:42;;;;;;;8.60;5.40;;;22.70;55.60;;;;;;5072177;28;20423;-70
2024/04/05 05:02:08;;;;;;;6.83;5.63;;;22.70;55.60;;;;;;5072233;28;20190;-67
2024/04/05 05:04:34;;;;;;;7.00;5.53;;;22.70;55.60;;;;;;5072120;28;20436;-68
2024/04/05 05:07:01;;;;;;;8.00;5.87;;;22.70;55.60;;;;;;5073347;28;20503;-68
2024/04/05 05:09:27;;;;;;;7.67;5.60;;;22.70;55.60;;;;;;5073322;28;20791;-68
2024/04/05 05:11:52;;;;;;;7.03;6.03;;;22.70;55.60;;;;;;5073179;28;20804;-69
2024/04/05 05:14:18;;;;;;;7.13;5.60;;;22.70;55.60;;;;;;5072991;28;20268;-69
2024/04/05 05:16:43;;;;;;;6.70;5.40;;;22.70;55.60;;;;;;5072899;28;20182;-69
2024/04/05 05:19:09;;;;;;;8.53;6.00;;;22.70;55.60;;;;;;5073285;28;20205;-69
2024/04/05 05:21:35;;;;;;;7.33;5.03;;;22.70;55.60;;;;;;5072705;28;20190;-69
2024/04/05 05:24:02;;;;;;;6.93;5.17;;;22.70;55.60;;;;;;5072848;28;20241;-68
2024/04/05 05:26:27;;;;;;;8.17;6.43;;;22.70;55.60;;;;;;5072452;28;20466;-68
2024/04/05 05:28:53;;;;;;;6.73;5.53;;;22.70;55.60;;;;;;5073016;28;20416;-69
2024/04/05 05:31:19;;;;;;;6.03;4.70;;;22.70;55.50;;;;;;5073627;28;20194;-69
2024/04/05 05:33:45;;;;;;;6.50;5.07;;;22.70;55.50;;;;;;5072420;28;20544;-69
2024/04/05 05:36:11;;;;;;;7.57;5.40;;;22.70;56.10;;;;;;5072796;28;20720;-69
2024/04/05 05:38:38;;;;;;;6.33;5.40;;;22.70;55.50;;;;;;5072639;28;20458;-69
2024/04/05 05:41:03;;;;;;;7.27;5.20;;;22.70;55.50;;;;;;5072588;28;20190;-69
2024/04/05 05:43:29;;;;;;;9.53;6.53;;;22.70;55.50;;;;;;5072527;28;20934;-69
2024/04/05 05:45:54;;;;;;;8.60;6.70;;;22.70;55.50;;;;;;5072608;28;20654;-69
2024/04/05 05:48:20;;;;;;;9.07;6.27;;;22.70;55.50;;;;;;5072500;28;20184;-68
2024/04/05 05:50:46;;;;;;;10.70;6.27;;;22.70;55.50;;;;;;5072429;28;20252;-68
2024/04/05 05:53:12;;;;;;;8.70;5.70;;;22.70;55.50;;;;;;5072222;28;20200;-68
2024/04/05 05:55:38;;;;;;;7.90;5.67;;;22.70;55.50;;;;;;5072145;28;20966;-69
2024/04/05 05:58:03;;;;;;;6.83;4.90;;;22.70;55.50;;;;;;5072032;28;20622;-70
2024/04/05 06:00:30;;;;;;;6.70;5.40;;;22.80;55.60;;;;;;5072594;28;20233;-69
2024/04/05 06:02:56;;;;;;;8.40;5.50;;;22.70;55.50;;;;;;5072528;28;20218;-69
2024/04/05 06:05:23;;;;;;;7.37;6.10;;;22.70;55.50;;;;;;5072486;28;20507;-67
2024/04/05 06:07:51;;;;;;;7.90;5.50;;;22.70;55.50;;;;;;5072269;28;20416;-69
2024/04/05 06:10:16;;;;;;;8.03;5.97;;;22.70;55.50;;;;;;5072174;28;20425;-69
2024/04/05 06:12:42;;;;;;;8.10;5.63;;;22.80;55.60;;;;;;5071937;28;20495;-69
2024/04/05 06:15:07;;;;;;;8.87;5.80;;;22.70;55.50;;;;;;5071878;28;20653;-69
2024/04/05 06:17:35;;;;;;;6.50;5.43;;;22.70;55.50;;;;;;5071949;28;20221;-69
2024/04/05 06:20:05;;;;;;;8.03;6.37;;;22.70;55.50;;;;;;5072403;28;20664;-69
2024/04/05 06:22:32;;;;;;;8.47;5.63;;;22.80;55.50;;;;;;5072049;28;20412;-69
2024/04/05 06:24:58;;;;;;;7.03;5.63;;;22.80;55.50;;;;;;5072558;28;20420;-69
2024/04/05 06:27:23;;;;;;;7.40;5.60;;;22.70;55.50;;;;;;5072177;28;20778;-68
2024/04/05 06:29:50;;;;;;;7.67;5.97;;;22.80;55.50;;;;;;5072172;28;20714;-68
2024/04/05 06:32:16;;;;;;;8.17;5.63;;;22.80;55.50;;;;;;5072461;28;20536;-68
2024/04/05 06:34:43;;;;;;;7.23;5.10;;;22.70;55.50;;;;;;5072113;28;20397;-69
2024/04/05 06:37:09;;;;;;;7.63;5.70;;;22.70;55.50;;;;;;5072384;28;20440;-69
2024/04/05 06:39:34;;;;;;;8.17;5.63;;;22.80;55.60;;;;;;5071459;28;20477;-70
2024/04/05 06:42:00;;;;;;;7.63;5.87;;;22.70;55.50;;;;;;5071164;28;20559;-69
2024/04/05 06:44:31;;;;;;;7.30;5.50;;;22.70;55.50;;;;;;5071642;28;20193;-68
2024/04/05 06:47:04;;;;;;;9.73;6.43;;;22.70;55.50;;;;;;5071741;28;20385;-67
2024/04/05 06:49:33;;;;;;;7.00;5.27;;;22.70;55.50;;;;;;5071945;28;20460;-69
2024/04/05 06:52:06;;;;;;;7.00;5.07;;;22.70;55.50;;;;;;5071166;28;20519;-69
2024/04/05 06:54:32;;;;;;;6.60;5.07;;;22.80;55.60;;;;;;5071696;28;20915;-69
2024/04/05 06:56:58;;;;;;;5.80;4.70;;;22.70;55.50;;;;;;5071716;28;20907;-69
2024/04/05 06:59:24;;;;;;;6.70;4.83;;;22.70;55.50;;;;;;5071637;28;20470;-69
2024/04/05 07:01:53;;;;;;;6.60;4.70;;;22.80;55.60;;;;;;5071917;28;20186;-68
2024/04/05 07:04:23;;;;;;;6.97;5.50;;;22.80;55.60;;;;;;5071819;28;20198;-69
2024/04/05 07:06:49;;;;;;;5.27;4.77;;;22.80;55.50;;;;;;5071412;28;20542;-70
2024/04/05 07:09:15;;;;;;;7.20;5.13;;;22.70;55.50;;;;;;5071621;28;20412;-70
2024/04/05 07:11:40;;;;;;;7.23;5.60;;;22.80;55.50;;;;;;5071487;28;20428;-68
2024/04/05 07:14:07;;;;;;;6.57;4.87;;;22.80;55.50;;;;;;5071704;28;20178;-67
2024/04/05 07:16:32;;;;;;;8.40;5.50;;;22.80;55.50;;;;;;5071591;28;20541;-69
2024/04/05 07:18:58;;;;;;;6.83;4.40;;;22.80;55.50;;;;;;5071399;28;20547;-69
2024/04/05 07:21:24;;;;;;;7.30;4.97;;;22.80;55.50;;;;;;5070978;28;20738;-69
2024/04/05 07:23:51;;;;;;;6.23;4.70;;;22.80;55.50;;;;;;5070971;28;20162;-68
2024/04/05 07:26:17;;;;;;;9.00;5.60;;;22.80;55.50;;;;;;5073814;28;20503;-71
2024/04/05 07:28:42;;;;;;;6.23;4.50;;;22.80;55.50;;;;;;5075269;28;20496;-69
2024/04/05 07:31:08;;;;;;;6.13;4.90;;;22.80;55.50;;;;;;5073400;28;20198;-69
2024/04/05 07:33:33;;;;;;;5.70;4.57;;;22.80;55.50;;;;;;5074960;28;20649;-69
2024/04/05 07:35:59;;;;;;;5.73;5.10;;;22.80;55.50;;;;;;5074692;28;20196;-70
2024/04/05 07:38:27;;;;;;;7.33;4.80;;;22.80;55.50;;;;;;5074747;28;20209;-69
2024/04/05 07:41:05;;;;;;;7.27;4.93;;;22.80;55.50;;;;;;5074822;28;20190;-69
2024/04/05 07:43:30;;;;;;;5.73;5.17;;;22.80;55.50;;;;;;5074837;28;20400;-69
2024/04/05 07:45:56;;;;;;;4.70;4.17;;;22.80;55.40;;;;;;5074808;28;20415;-69
2024/04/05 07:48:22;;;;;;;5.37;4.23;;;22.80;55.40;;;;;;5074983;28;20201;-69
2024/04/05 07:50:47;;;;;;;7.87;5.37;;;22.80;55.50;;;;;;5074703;28;20198;-67
2024/04/05 07:53:13;;;;;;;6.10;4.60;;;22.80;55.40;;;;;;5074938;28;20412;-67
2024/04/05 07:55:38;;;;;;;5.83;4.57;;;22.80;55.50;;;;;;5075039;28;20174;-68
2024/04/05 07:58:04;;;;;;;6.03;4.20;;;22.80;56.00;;;;;;5074636;28;20202;-68
2024/04/05 08:00:30;;;;;;;5.23;4.17;;;22.80;55.40;;;;;;5074867;28;20245;-69
2024/04/05 08:02:55;;;;;;;4.97;3.67;;;22.80;55.40;;;;;;5074789;28;20189;-68
2024/04/05 08:05:21;;;;;;;5.70;4.27;;;22.80;55.40;;;;;;5074457;28;20166;-69
2024/04/05 08:07:47;;;;;;;5.10;4.17;;;22.80;55.40;;;;;;5074481;28;20255;-69
2024/04/05 08:10:13;;;;;;;5.83;4.10;;;22.80;55.40;;;;;;5074580;28;20770;-69
2024/04/05 08:12:39;;;;;;;5.03;4.33;;;22.80;56.00;;;;;;5074774;28;20604;-69
2024/04/05 08:15:10;;;;;;;6.30;4.40;;;22.80;55.40;;;;;;5074514;28;20220;-68
2024/04/05 08:17:36;;;;;;;7.53;4.90;;;22.80;55.40;;;;;;5074582;28;20906;-68
2024/04/05 08:20:02;;;;;;;4.87;3.73;;;22.80;55.40;;;;;;5075026;28;20495;-68
2024/04/05 08:22:28;;;;;;;6.40;4.53;;;22.90;55.50;;;;;;5074118;28;20409;-69
2024/04/05 08:24:54;;;;;;;6.63;4.70;;;22.90;55.50;;;;;;5074062;28;20462;-68
2024/04/05 08:27:19;;;;;;;6.30;4.80;;;22.80;55.50;;;;;;5073431;28;20163;-68
2024/04/05 08:29:45;;;;;;;6.20;5.27;;;22.90;55.60;;;;;;5074139;28;20404;-67
2024/04/05 08:32:11;;;;;;;5.10;4.07;;;22.90;55.60;;;;;;5074554;28;20224;-68
2024/04/05 08:34:37;;;;;;;6.23;4.67;;;22.90;55.60;;;;;;5074577;28;20420;-67
2024/04/05 08:37:04;;;;;;;5.10;4.00;;;22.90;55.60;;;;;;5074602;28;20163;-68
2024/04/05 08:39:29;;;;;;;6.80;4.67;;;22.90;55.60;;;;;;5072773;28;20472;-69
2024/04/05 08:42:11;;;;;;;6.20;4.80;;;22.90;55.60;;;;;;5073511;28;20428;-69
2024/04/05 08:44:38;;;;;;;6.93;4.43;;;22.90;55.70;;;;;;5073252;28;20147;-69
2024/04/05 08:47:06;;;;;;;4.83;4.33;;;22.90;55.70;;;;;;5073895;28;20411;-69
2024/04/05 08:49:33;;;;;;;9.30;4.77;;;22.90;55.60;;;;;;5073371;28;20408;-68
2024/04/05 08:52:00;;;;;;;5.80;4.60;;;22.90;55.60;;;;;;5072988;28;20489;-69
2024/04/05 08:54:28;;;;;;;6.00;4.60;;;22.90;55.70;;;;;;5073225;28;20405;-69
2024/04/05 08:56:55;;;;;;;6.13;4.83;;;22.90;55.70;;;;;;5073130;28;20418;-69
2024/04/05 08:59:23;;;;;;;5.67;5.00;;;22.90;55.70;;;;;;5073277;28;20551;-69
2024/04/05 09:01:51;;;;;;;6.50;4.73;;;22.90;55.70;;;;;;5072976;28;20432;-69
2024/04/05 09:04:17;;;;;;;5.50;4.60;;;22.90;55.60;;;;;;5072854;28;20440;-69
2024/04/05 09:06:43;;;;;;;6.60;4.73;;;22.90;55.60;;;;;;5073184;28;21121;-69
2024/04/05 09:09:09;;;;;;;22.00;4.77;;;22.90;55.50;;;;;;5073097;28;20416;-70
2024/04/05 09:11:37;;;;;;;5.80;4.20;;;22.90;55.50;;;;;;5072913;28;20947;-68
2024/04/05 09:14:03;;;;;;;6.10;4.47;;;22.90;55.50;;;;;;5072977;28;20174;-68
2024/04/05 09:16:31;;;;;;;5.07;4.57;;;22.90;55.50;;;;;;5072867;28;20428;-69
2024/04/05 09:19:08;;;;;;;5.90;4.40;;;22.90;55.50;;;;;;5072404;28;20853;-69
2024/04/05 09:21:34;;;;;;;7.97;5.03;;;22.90;55.50;;;;;;5073097;28;20424;-70
2024/04/05 09:24:02;;;;;;;6.23;4.53;;;22.90;55.60;;;;;;5072715;28;20418;-69
2024/04/05 09:26:27;;;;;;;5.63;3.93;;;22.90;55.60;;;;;;5072575;28;20904;-69
2024/04/05 09:29:03;;;;;;;6.70;5.33;;;22.90;55.60;;;;;;5072462;28;20431;-68
2024/04/05 09:31:29;;;;;;;7.53;4.47;;;22.90;55.60;;;;;;5070727;28;20367;-69
2024/04/05 09:34:27;;;;;;;7.93;4.40;;;22.90;55.60;;;;;;5070733;28;20810;-69
2024/04/05 09:36:53;;;;;;;6.23;4.00;;;23.00;55.70;;;;;;5072662;28;20425;-68
2024/04/05 09:39:21;;;;;;;7.10;4.67;;;22.90;55.60;;;;;;5071577;28;20460;-69
2024/04/05 09:41:49;;;;;;;6.20;4.50;;;23.00;55.70;;;;;;5072479;28;20445;-68
2024/04/05 09:44:17;;;;;;;8.13;4.40;;;23.00;55.80;;;;;;5072393;28;20922;-70
2024/04/05 09:46:43;;;;;;;7.00;4.23;;;23.00;55.70;;;;;;5072599;28;20503;-71
2024/04/05 09:49:11;;;;;;;4.83;3.67;;;23.00;55.70;;;;;;5071615;28;20546;-70
2024/04/05 09:51:44;;;;;;;7.40;4.10;;;23.00;55.70;;;;;;5072414;28;20428;-69
2024/04/05 09:54:19;;;;;;;6.53;4.63;;;23.00;55.70;;;;;;5072366;28;20407;-70
2024/04/05 09:56:46;;;;;;;5.27;4.33;;;23.00;55.70;;;;;;5072513;28;20400;-69
2024/04/05 09:59:20;;;;;;;5.73;4.20;;;23.00;55.70;;;;;;5072242;28;20500;-69
2024/04/05 10:01:46;;;;;;;5.67;4.07;;;23.00;55.70;;;;;;5070867;28;20424;-69
2024/04/05 10:04:12;;;;;;;4.97;3.90;;;23.00;55.70;;;;;;5072612;28;20853;-69
2024/04/05 10:06:41;;;;;;;5.77;4.30;;;23.00;55.70;;;;;;5070795;28;20744;-70
2024/04/05 10:09:25;;;;;;;6.37;4.10;;;23.00;55.60;;;;;;5071822;28;20408;-70
2024/04/05 10:11:51;;;;;;;5.17;4.07;;;23.00;55.60;;;;;;5071768;28;20432;-69
2024/04/05 10:14:31;;;;;;;5.23;3.73;;;23.00;55.60;;;;;;5072100;28;20407;-70
2024/04/05 10:17:11;;;;;;;5.33;4.10;;;23.00;55.60;;;;;;5071985;28;20487;-70
2024/04/05 10:19:38;;;;;;;5.57;4.00;;;23.00;55.60;;;;;;5071499;28;20452;-69
2024/04/05 10:22:18;;;;;;;5.57;3.57;;;23.00;55.60;;;;;;5071688;28;20447;-69
2024/04/05 10:24:44;;;;;;;6.47;4.00;;;23.00;55.60;;;;;;5071823;28;20393;-70
2024/04/05 10:27:22;;;;;;;6.10;3.67;;;23.00;55.60;;;;;;5071704;28;20415;-68
2024/04/05 10:30:00;;;;;;;4.97;3.50;;;23.10;55.70;;;;;;5072283;28;20415;-69
2024/04/05 10:32:26;;;;;;;4.80;3.80;;;23.10;55.70;;;;;;5071244;28;20388;-70
2024/04/05 10:34:52;;;;;;;5.03;3.90;;;23.00;55.60;;;;;;5071890;28;20440;-70
2024/04/05 10:37:18;;;;;;;5.70;3.93;;;23.10;55.70;;;;;;5071953;28;20451;-68
2024/04/05 10:39:43;;;;;;;5.83;3.83;;;23.10;55.70;;;;;;5072069;28;20177;-69
2024/04/05 10:42:10;;;;;;;5.03;3.97;;;23.10;55.70;;;;;;5072078;28;20540;-67
2024/04/05 10:44:36;;;;;;;4.60;3.50;;;23.00;55.60;;;;;;5071981;28;20643;-69
2024/04/05 10:47:02;;;;;;;4.50;3.90;;;23.10;55.70;;;;;;5071526;28;20415;-69
2024/04/05 10:49:27;;;;;;;4.50;3.53;;;23.10;55.70;;;;;;5071415;28;20204;-70
2024/04/05 10:51:59;;;;;;;4.23;3.20;;;23.10;55.70;;;;;;5071228;28;20717;-68
2024/04/05 10:54:24;;;;;;;4.77;3.47;;;23.10;55.60;;;;;;5071492;28;20166;-69
2024/04/05 10:56:50;;;;;;;4.27;3.63;;;23.10;55.60;;;;;;5071709;28;20480;-69
2024/04/05 10:59:19;;;;;;;4.63;3.63;;;23.10;55.60;;;;;;5071727;28;20221;-70
2024/04/05 11:01:47;;;;;;;4.73;3.30;;;23.10;55.60;;;;;;5074843;28;20212;-70
2024/04/05 11:04:13;;;;;;;5.10;3.33;;;23.10;55.70;;;;;;5075861;28;20408;-70
2024/04/05 11:06:40;;;;;;;4.60;3.97;;;23.10;55.60;;;;;;5075444;28;20408;-69
2024/04/05 11:09:07;;;;;;;4.33;2.83;;;23.10;55.60;;;;;;5075489;28;20253;-69
2024/04/05 11:11:33;;;;;;;6.17;3.10;;;23.10;55.60;;;;;;5075582;28;20440;-70
2024/04/05 11:14:06;;;;;;;4.77;3.47;;;23.10;55.60;;;;;;5075585;28;20473;-70
2024/04/05 11:16:36;;;;;;;4.20;3.30;;;23.10;55.60;;;;;;5075606;28;20784;-68
2024/04/05 11:19:03;;;;;;;5.40;3.60;;;23.10;55.60;;;;;;5075224;28;20882;-69
2024/04/05 11:21:29;;;;;;;5.50;3.57;;;23.10;55.60;;;;;;5075001;28;20966;-70
2024/04/05 11:23:56;;;;;;;3.80;2.93;;;23.10;55.60;;;;;;5075218;28;20408;-70
2024/04/05 11:26:32;;;;;;;5.20;4.13;;;23.10;55.50;;;;;;5075134;28;20405;-68
2024/04/05 11:29:01;;;;;;;4.27;3.30;;;23.10;55.60;;;;;;5074683;28;20400;-68
2024/04/05 11:31:27;;;;;;;3.87;2.90;;;23.10;55.60;;;;;;5073321;28;20452;-69
2024/04/05 11:33:53;;;;;;;3.80;3.30;;;23.10;55.60;;;;;;5073141;28;20408;-69
2024/04/05 11:36:20;;;;;;;4.07;3.57;;;23.10;55.60;;;;;;5073295;28;20412;-69
2024/04/05 11:38:49;;;;;;;4.90;3.07;;;23.10;55.60;;;;;;5073391;28;20459;-69
2024/04/05 11:41:16;;;;;;;5.33;3.30;;;23.10;55.60;;;;;;5073257;28;20424;-69
2024/04/05 11:43:42;;;;;;;5.67;3.73;;;23.10;55.60;;;;;;5071918;28;20808;-69
2024/04/05 11:46:08;;;;;;;5.30;3.60;;;23.10;55.60;;;;;;5072974;28;20404;-69
2024/04/05 11:48:34;;;;;;;4.40;3.13;;;23.10;55.60;;;;;;5073018;28;20915;-71
2024/04/05 11:51:00;;;;;;;5.00;3.77;;;23.10;55.60;;;;;;5073853;28;20432;-69
2024/04/05 11:53:25;;;;;;;5.33;3.03;;;23.10;55.60;;;;;;5072857;28;20186;-68
2024/04/05 11:55:51;;;;;;;4.63;3.40;;;23.10;55.70;;;;;;5074105;28;20915;-70
2024/04/05 11:58:17;;;;;;;4.60;2.97;;;23.10;55.60;;;;;;5074292;28;20672;-69
2024/04/05 12:00:48;;;;;;;4.40;3.57;;;23.10;55.60;;;;;;5074535;28;20335;-70
2024/04/05 12:03:17;;;;;;;2.93;2.63;;;23.10;55.60;;;;;;5073944;28;20413;-69
2024/04/05 12:05:44;;;;;;;3.90;2.93;;;23.10;55.60;;;;;;5073802;28;20405;-68
2024/04/05 12:08:10;;;;;;;4.07;3.10;;;23.10;55.60;;;;;;5073901;28;20415;-70
2024/04/05 12:10:37;;;;;;;3.87;3.10;;;23.10;55.60;;;;;;5072944;28;20790;-69
2024/04/05 12:13:03;;;;;;;5.17;3.37;;;23.10;55.60;;;;;;5073303;28;20413;-68
2024/04/05 12:15:28;;;;;;;3.70;3.10;;;23.10;55.60;;;;;;5073933;28;20474;-70
2024/04/05 12:17:54;;;;;;;4.37;3.87;;;23.10;55.60;;;;;;5073171;28;20214;-68
2024/04/05 12:20:19;;;;;;;5.30;3.57;;;23.10;55.60;;;;;;5073558;28;20190;-69
2024/04/05 12:22:46;;;;;;;4.80;4.00;;;23.10;55.60;;;;;;5073735;28;20170;-67
2024/04/05 12:25:12;;;;;;;4.47;3.07;;;23.10;55.60;;;;;;5073323;28;20725;-69
2024/04/05 12:27:37;;;;;;;5.40;3.43;;;23.10;55.60;;;;;;5073462;28;20401;-68
2024/04/05 12:30:10;;;;;;;3.40;2.93;;;23.10;55.60;;;;;;5071857;28;20533;-69
2024/04/05 12:32:37;;;;;;;5.23;3.40;;;23.10;55.60;;;;;;5072953;28;20508;-68
2024/04/05 12:35:04;;;;;;;4.17;3.10;;;23.10;55.60;;;;;;5072418;28;20416;-69
2024/04/05 12:37:30;;;;;;;3.90;3.27;;;23.10;55.60;;;;;;5072686;28;20405;-69
2024/04/05 12:39:56;;;;;;;4.83;3.00;;;23.10;55.60;;;;;;5072564;28;20539;-69
2024/04/05 12:42:21;;;;;;;5.13;3.70;;;23.10;55.50;;;;;;5072103;28;20962;-69